Time;durP1;ratioP1;P1;durP2;ratioP2;P2;SDS_P1;SDS_P2;PMS_P1;PMS_P2;Temp;Humidity;BMP_temperature;BMP_pressure;BME280_temperature;BME280_humidity;BME280_pressure;Samples;Min_cycle;Max_cycle;Signal;HPM_P1;HPM_P2
2023/06/26 00:01:21;;;;;;;7.47;6.75;;;24.80;86.50;;;;;;5024544;28;20033;-58
2023/06/26 00:04:07;;;;;;;8.43;6.50;;;24.80;86.80;;;;;;5034499;28;20051;-59
2023/06/26 00:06:53;;;;;;;7.32;6.47;;;24.80;86.90;;;;;;5036840;28;20030;-60
2023/06/26 00:09:39;;;;;;;8.25;6.97;;;24.80;87.00;;;;;;5036310;28;20402;-59
2023/06/26 00:12:25;;;;;;;7.28;6.55;;;24.80;87.00;;;;;;5033947;28;20109;-60
2023/06/26 00:15:12;;;;;;;6.90;6.30;;;24.80;87.30;;;;;;5033548;28;20461;-59
2023/06/26 00:18:03;;;;;;;7.82;6.32;;;24.90;87.90;;;;;;5033267;28;20045;-58
2023/06/26 00:20:49;;;;;;;8.02;6.75;;;24.80;88.50;;;;;;5023901;28;20029;-59
2023/06/26 00:23:36;;;;;;;8.95;7.50;;;24.80;89.00;;;;;;5032872;28;20037;-58
2023/06/26 00:26:24;;;;;;;7.82;7.13;;;24.70;89.20;;;;;;5015528;28;20045;-59
2023/06/26 00:29:09;;;;;;;7.75;7.05;;;24.60;90.00;;;;;;5014333;28;20034;-60
2023/06/26 00:31:55;;;;;;;7.72;7.00;;;24.50;90.40;;;;;;5021665;28;20055;-64
2023/06/26 00:34:41;;;;;;;9.68;7.45;;;24.50;90.50;;;;;;5034211;28;20041;-57
2023/06/26 00:37:27;;;;;;;8.65;7.13;;;24.40;90.80;;;;;;5032774;28;20026;-58
2023/06/26 00:40:13;;;;;;;7.68;6.85;;;24.30;90.90;;;;;;5034002;28;20087;-59
2023/06/26 00:42:59;;;;;;;7.82;7.13;;;24.20;91.10;;;;;;5034631;28;20037;-59
2023/06/26 00:45:45;;;;;;;7.93;7.10;;;24.20;91.30;;;;;;5033947;28;20029;-58
2023/06/26 00:48:31;;;;;;;8.07;7.28;;;24.20;91.70;;;;;;5021401;28;20112;-59
2023/06/26 00:51:17;;;;;;;7.70;7.00;;;24.20;92.30;;;;;;5033677;28;20017;-58
2023/06/26 00:54:03;;;;;;;8.25;7.45;;;24.10;92.30;;;;;;5032251;28;20030;-59
2023/06/26 00:56:49;;;;;;;8.80;7.88;;;24.10;92.50;;;;;;5033013;28;20437;-59
2023/06/26 00:59:35;;;;;;;9.98;7.40;;;24.10;92.80;;;;;;5034611;28;20087;-59
2023/06/26 01:02:21;;;;;;;8.25;7.13;;;24.10;93.00;;;;;;5032629;28;20034;-58
2023/06/26 01:05:10;;;;;;;8.18;7.38;;;24.10;93.10;;;;;;5034389;28;20036;-58
2023/06/26 01:07:58;;;;;;;7.95;7.07;;;24.00;93.40;;;;;;5033279;28;20509;-59
2023/06/26 01:10:45;;;;;;;9.55;8.15;;;23.90;93.70;;;;;;5033575;28;20521;-59
2023/06/26 01:13:32;;;;;;;10.48;7.25;;;23.70;94.10;;;;;;5032166;28;20025;-58
2023/06/26 01:16:20;;;;;;;8.45;7.68;;;23.60;94.20;;;;;;5032413;28;20030;-58
2023/06/26 01:19:10;;;;;;;8.55;7.65;;;23.60;94.40;;;;;;5034200;28;20025;-60
2023/06/26 01:22:00;;;;;;;9.10;7.75;;;23.50;94.60;;;;;;5037591;28;20025;-58
2023/06/26 01:25:01;;;;;;;9.02;7.55;;;23.50;95.10;;;;;;5038582;28;20021;-58
2023/06/26 01:27:49;;;;;;;8.55;7.75;;;23.40;95.30;;;;;;5033492;28;20037;-58
2023/06/26 01:30:45;;;;;;;8.95;7.45;;;23.30;95.70;;;;;;5032557;28;20052;-57
2023/06/26 01:33:32;;;;;;;8.38;7.60;;;23.20;96.30;;;;;;5032590;28;20025;-56
2023/06/26 01:36:18;;;;;;;8.63;7.78;;;23.20;96.70;;;;;;5031966;28;20025;-58
2023/06/26 01:39:04;;;;;;;8.60;7.15;;;23.30;96.90;;;;;;5033293;28;20453;-58
2023/06/26 01:41:50;;;;;;;8.88;7.25;;;23.30;97.00;;;;;;5031662;28;20109;-58
2023/06/26 01:44:42;;;;;;;7.90;7.15;;;23.30;97.00;;;;;;5032754;28;20034;-59
2023/06/26 01:47:31;;;;;;;8.65;7.47;;;23.20;97.10;;;;;;5032833;28;20025;-59
2023/06/26 01:50:26;;;;;;;7.82;6.88;;;23.20;97.30;;;;;;5033169;28;20029;-59
2023/06/26 01:53:17;;;;;;;8.65;7.72;;;23.20;97.40;;;;;;5032667;28;20034;-59
2023/06/26 01:56:14;;;;;;;8.45;7.63;;;23.20;97.40;;;;;;5033314;28;20048;-59
2023/06/26 01:59:01;;;;;;;8.68;7.53;;;23.20;97.40;;;;;;5034407;28;20116;-59
2023/06/26 02:01:48;;;;;;;8.40;7.60;;;23.20;97.40;;;;;;5041731;28;20029;-58
2023/06/26 02:04:34;;;;;;;8.52;7.40;;;23.20;97.50;;;;;;5013422;28;20042;-58
2023/06/26 02:07:20;;;;;;;8.52;7.72;;;23.20;97.70;;;;;;5023258;28;20112;-59
2023/06/26 02:10:06;;;;;;;8.32;7.50;;;23.10;98.10;;;;;;5033552;28;20036;-59
2023/06/26 02:12:52;;;;;;;8.10;7.28;;;23.10;98.30;;;;;;5014787;28;20419;-58
2023/06/26 02:15:39;;;;;;;9.32;7.70;;;23.10;98.50;;;;;;5030992;28;20022;-58
2023/06/26 02:18:25;;;;;;;8.95;7.45;;;23.10;98.60;;;;;;5032344;28;20033;-58
2023/06/26 02:21:11;;;;;;;9.00;7.63;;;23.00;98.60;;;;;;5032613;28;20035;-60
2023/06/26 02:23:57;;;;;;;9.10;8.18;;;23.10;98.70;;;;;;5030905;28;20025;-58
2023/06/26 02:26:43;;;;;;;8.50;7.60;;;23.10;98.80;;;;;;5032001;28;20506;-57
2023/06/26 02:29:30;;;;;;;9.25;7.60;;;22.90;99.10;;;;;;5031894;28;20084;-57
2023/06/26 02:32:16;;;;;;;9.05;7.68;;;22.80;99.30;;;;;;5031732;28;20030;-59
2023/06/26 02:35:02;;;;;;;8.52;7.72;;;22.70;99.90;;;;;;5031469;28;20158;-58
2023/06/26 02:37:48;;;;;;;9.95;7.57;;;22.70;99.90;;;;;;5031400;28;20064;-58
2023/06/26 02:40:34;;;;;;;8.95;8.02;;;22.70;99.90;;;;;;5031526;28;20092;-58
2023/06/26 02:43:20;;;;;;;10.63;8.07;;;22.70;99.90;;;;;;5030305;28;20029;-58
2023/06/26 02:46:06;;;;;;;8.57;7.63;;;22.70;99.90;;;;;;5030791;28;20088;-58
2023/06/26 02:48:52;;;;;;;10.50;7.50;;;22.60;99.90;;;;;;5032385;28;20532;-54
2023/06/26 02:51:38;;;;;;;8.18;7.38;;;22.60;99.90;;;;;;5031003;28;20071;-53
2023/06/26 02:54:24;;;;;;;10.23;7.35;;;22.60;99.90;;;;;;5031067;28;20033;-56
2023/06/26 02:57:10;;;;;;;8.13;7.32;;;22.60;99.90;;;;;;5031207;28;20142;-57
2023/06/26 02:59:56;;;;;;;9.98;8.32;;;22.60;99.90;;;;;;5019670;28;20057;-57
2023/06/26 03:02:42;;;;;;;9.32;7.90;;;22.60;99.90;;;;;;5032497;28;20079;-57
2023/06/26 03:05:28;;;;;;;9.13;7.90;;;22.50;99.90;;;;;;5032191;28;20568;-58
2023/06/26 03:08:14;;;;;;;8.57;7.68;;;22.50;99.90;;;;;;5032179;28;20509;-56
2023/06/26 03:10:59;;;;;;;8.50;7.40;;;22.40;99.90;;;;;;5031102;28;20036;-55
2023/06/26 03:13:45;;;;;;;10.02;8.30;;;22.40;99.90;;;;;;5032877;28;20029;-55
2023/06/26 03:16:31;;;;;;;10.15;7.60;;;22.40;99.90;;;;;;5032838;28;20076;-55
2023/06/26 03:19:17;;;;;;;12.90;7.68;;;22.40;99.90;;;;;;5030769;28;20065;-55
2023/06/26 03:22:04;;;;;;;8.65;7.57;;;22.40;99.90;;;;;;5032589;28;20041;-56
2023/06/26 03:24:49;;;;;;;8.73;7.55;;;22.40;99.90;;;;;;5031967;28;20529;-57
2023/06/26 03:27:35;;;;;;;11.40;7.95;;;22.50;99.90;;;;;;5032592;28;20029;-56
2023/06/26 03:30:21;;;;;;;10.10;7.97;;;22.50;99.90;;;;;;5023530;28;20030;-54
2023/06/26 03:33:07;;;;;;;9.80;8.25;;;22.50;99.90;;;;;;5035917;28;20079;-55
2023/06/26 03:35:53;;;;;;;10.35;7.85;;;22.60;99.90;;;;;;5037703;28;20022;-53
2023/06/26 03:38:39;;;;;;;9.13;8.10;;;22.60;99.90;;;;;;5051577;28;20040;-56
2023/06/26 03:41:25;;;;;;;9.70;8.15;;;22.60;99.90;;;;;;5041890;28;20029;-57
2023/06/26 03:44:12;;;;;;;8.73;7.82;;;22.50;99.90;;;;;;5037721;28;20031;-55
2023/06/26 03:46:57;;;;;;;10.43;8.73;;;22.60;99.90;;;;;;5038273;28;20040;-56
2023/06/26 03:49:43;;;;;;;9.00;8.10;;;22.60;99.90;;;;;;5044124;28;20034;-55
2023/06/26 03:52:30;;;;;;;9.02;7.80;;;22.60;99.90;;;;;;5038722;28;20061;-57
2023/06/26 03:55:17;;;;;;;10.68;7.70;;;22.70;99.90;;;;;;5038055;28;20021;-54
2023/06/26 03:58:03;;;;;;;10.48;8.50;;;22.80;99.90;;;;;;5035982;28;20436;-55
2023/06/26 04:00:49;;;;;;;8.43;7.60;;;22.90;99.50;;;;;;5033396;28;20037;-55
2023/06/26 04:03:35;;;;;;;9.32;8.13;;;23.00;99.30;;;;;;5028853;28;20044;-57
2023/06/26 04:06:21;;;;;;;10.50;8.80;;;23.00;98.90;;;;;;5015271;28;20026;-57
2023/06/26 04:09:07;;;;;;;8.40;7.43;;;23.00;98.90;;;;;;5015577;28;20048;-57
2023/06/26 04:11:53;;;;;;;9.40;8.40;;;23.00;99.00;;;;;;5032741;28;20021;-56
2023/06/26 04:14:39;;;;;;;10.70;9.13;;;23.00;98.90;;;;;;5021710;28;20057;-55
2023/06/26 04:17:25;;;;;;;9.20;7.43;;;23.00;98.80;;;;;;5025326;28;20034;-60
2023/06/26 04:20:11;;;;;;;9.90;8.80;;;23.10;98.80;;;;;;5026889;28;20025;-59
2023/06/26 04:22:57;;;;;;;13.75;10.18;;;23.10;98.40;;;;;;5040209;28;20505;-57
2023/06/26 04:25:43;;;;;;;10.30;8.45;;;23.20;98.20;;;;;;5036134;28;20060;-58
2023/06/26 04:28:29;;;;;;;10.73;9.00;;;23.10;98.50;;;;;;5033768;28;20037;-53
2023/06/26 04:31:15;;;;;;;9.88;8.63;;;23.10;98.30;;;;;;5033417;28;20037;-58
2023/06/26 04:34:00;;;;;;;11.10;8.68;;;23.00;98.30;;;;;;5035089;28;20025;-56
2023/06/26 04:36:47;;;;;;;9.85;8.73;;;23.00;98.30;;;;;;5033307;28;20032;-56
2023/06/26 04:39:33;;;;;;;9.32;8.27;;;22.90;98.30;;;;;;5032806;28;20398;-56
2023/06/26 04:42:21;;;;;;;9.02;8.05;;;22.80;98.60;;;;;;5034292;28;20022;-58
2023/06/26 04:45:07;;;;;;;9.98;8.02;;;22.90;98.60;;;;;;5020928;28;20030;-57
2023/06/26 04:47:53;;;;;;;11.90;7.90;;;23.00;98.60;;;;;;5034305;28;20029;-56
2023/06/26 04:50:40;;;;;;;10.80;8.77;;;23.10;98.50;;;;;;5034205;28;20087;-58
2023/06/26 04:53:25;;;;;;;10.40;8.43;;;23.10;98.20;;;;;;5034078;28;20382;-58
2023/06/26 04:56:11;;;;;;;9.75;8.00;;;23.10;98.20;;;;;;5033234;28;20109;-55
2023/06/26 04:58:57;;;;;;;11.00;8.63;;;23.20;98.20;;;;;;5033446;28;20025;-58
2023/06/26 05:01:47;;;;;;;16.17;9.73;;;23.20;98.10;;;;;;5032156;28;20067;-56
2023/06/26 05:04:33;;;;;;;11.48;9.52;;;23.30;97.90;;;;;;5033378;28;20502;-56
2023/06/26 05:07:19;;;;;;;13.00;9.57;;;23.30;97.80;;;;;;5032265;28;20026;-55
2023/06/26 05:10:06;;;;;;;13.90;9.80;;;23.30;97.60;;;;;;5034088;28;20079;-55
2023/06/26 05:12:52;;;;;;;12.85;9.43;;;23.20;97.70;;;;;;5034268;28;20034;-53
2023/06/26 05:15:37;;;;;;;11.90;9.20;;;23.20;97.90;;;;;;5033912;28;20026;-55
2023/06/26 05:18:23;;;;;;;14.23;10.20;;;23.20;98.00;;;;;;5033512;28;20029;-56
2023/06/26 05:21:10;;;;;;;16.90;14.13;;;23.10;98.10;;;;;;5033618;28;20025;-56
2023/06/26 05:23:57;;;;;;;53.30;39.70;;;23.10;98.20;;;;;;5033302;28;20034;-57
2023/06/26 05:26:43;;;;;;;20.23;16.27;;;23.20;98.20;;;;;;5031172;28;20033;-57
2023/06/26 05:29:33;;;;;;;16.30;10.15;;;23.30;97.80;;;;;;5034037;28;20112;-57
2023/06/26 05:32:19;;;;;;;13.73;9.82;;;23.20;98.20;;;;;;5030982;28;20026;-59
2023/06/26 05:35:06;;;;;;;15.13;9.68;;;23.20;97.90;;;;;;5031871;28;20036;-57
2023/06/26 05:37:54;;;;;;;13.98;9.68;;;23.20;97.80;;;;;;5032188;28;20029;-58
2023/06/26 05:40:40;;;;;;;20.92;11.20;;;23.30;97.70;;;;;;5034126;28;20025;-59
2023/06/26 05:43:26;;;;;;;15.30;10.15;;;23.30;97.80;;;;;;5032934;28;20519;-57
2023/06/26 05:46:12;;;;;;;14.93;9.57;;;23.30;97.60;;;;;;5033619;28;20021;-57
2023/06/26 05:48:58;;;;;;;16.27;11.20;;;23.40;97.40;;;;;;5032597;28;20453;-59
2023/06/26 05:51:44;;;;;;;16.77;10.55;;;23.40;97.40;;;;;;5034686;28;20027;-58
2023/06/26 05:54:31;;;;;;;13.35;10.10;;;23.40;97.30;;;;;;5038815;28;20032;-57
2023/06/26 05:57:17;;;;;;;18.92;10.40;;;23.40;97.40;;;;;;5043867;28;20033;-59
2023/06/26 06:00:10;;;;;;;12.88;10.57;;;23.50;97.10;;;;;;5035062;28;20026;-59
2023/06/26 06:02:55;;;;;;;18.17;11.05;;;23.60;97.00;;;;;;5033363;28;20026;-59
2023/06/26 06:05:42;;;;;;;16.33;10.88;;;23.60;97.00;;;;;;5033015;28;20038;-58
2023/06/26 06:08:28;;;;;;;20.23;11.32;;;23.70;97.10;;;;;;5032830;28;20029;-57
2023/06/26 06:11:15;;;;;;;16.83;10.60;;;23.80;96.90;;;;;;5031102;28;20136;-59
2023/06/26 06:14:01;;;;;;;18.33;10.48;;;24.00;96.60;;;;;;5032396;28;20025;-58
2023/06/26 06:16:47;;;;;;;17.85;10.55;;;23.90;96.60;;;;;;5032089;28;20100;-59
2023/06/26 06:19:32;;;;;;;23.50;11.27;;;23.90;96.70;;;;;;5033253;28;20033;-60
2023/06/26 06:22:18;;;;;;;13.02;9.75;;;23.80;96.80;;;;;;5032925;28;20038;-57
2023/06/26 06:25:05;;;;;;;13.98;9.82;;;23.70;97.00;;;;;;5033462;28;20033;-58
2023/06/26 06:27:51;;;;;;;16.23;9.95;;;23.80;97.00;;;;;;5033134;28;20088;-57
2023/06/26 06:30:37;;;;;;;16.92;10.00;;;24.10;96.80;;;;;;5034123;28;20029;-57
2023/06/26 06:33:23;;;;;;;14.70;10.02;;;24.20;96.50;;;;;;5036653;28;20109;-57
2023/06/26 06:36:09;;;;;;;14.23;9.82;;;24.40;96.00;;;;;;5032943;28;20022;-58
2023/06/26 06:38:55;;;;;;;15.73;9.32;;;24.30;95.60;;;;;;5032569;28;20037;-57
2023/06/26 06:41:40;;;;;;;17.08;9.23;;;24.40;95.90;;;;;;5031964;28;20030;-57
2023/06/26 06:44:26;;;;;;;15.75;9.30;;;24.50;95.80;;;;;;5032795;28;20060;-57
2023/06/26 06:47:12;;;;;;;14.38;9.35;;;24.50;95.70;;;;;;5032477;28;20029;-58
2023/06/26 06:50:03;;;;;;;14.25;10.43;;;24.60;96.20;;;;;;5032777;28;20034;-58
2023/06/26 06:52:49;;;;;;;20.98;10.15;;;24.60;95.90;;;;;;5030815;28;20037;-57
2023/06/26 06:55:35;;;;;;;11.40;9.73;;;24.70;96.10;;;;;;5024392;28;20144;-58
2023/06/26 06:58:22;;;;;;;10.40;9.32;;;24.80;95.70;;;;;;5032710;28;20080;-58
2023/06/26 07:01:09;;;;;;;10.90;9.80;;;24.80;95.50;;;;;;5029197;28;20094;-59
2023/06/26 07:03:55;;;;;;;12.80;9.77;;;24.80;95.70;;;;;;5013270;28;20037;-59
2023/06/26 07:06:41;;;;;;;19.15;10.13;;;24.80;95.70;;;;;;5033695;28;20084;-59
2023/06/26 07:09:27;;;;;;;25.85;10.75;;;24.80;95.80;;;;;;5035928;28;20041;-57
2023/06/26 07:12:13;;;;;;;14.63;8.88;;;24.80;95.40;;;;;;5027030;28;20104;-58
2023/06/26 07:15:01;;;;;;;10.93;8.52;;;24.80;94.90;;;;;;5016468;28;20375;-59
2023/06/26 07:17:47;;;;;;;12.02;8.82;;;24.90;95.10;;;;;;5016144;28;20407;-58
2023/06/26 07:20:33;;;;;;;14.35;9.00;;;25.00;95.00;;;;;;5025834;28;20099;-58
2023/06/26 07:23:19;;;;;;;11.57;9.30;;;25.20;95.00;;;;;;5036775;28;20026;-57
2023/06/26 07:26:05;;;;;;;11.88;8.70;;;25.30;94.50;;;;;;5035536;28;20091;-58
2023/06/26 07:28:51;;;;;;;16.00;8.95;;;25.30;94.50;;;;;;5035224;28;20044;-58
2023/06/26 07:31:37;;;;;;;12.43;9.15;;;25.40;94.50;;;;;;5035164;28;20084;-57
2023/06/26 07:34:23;;;;;;;13.77;9.95;;;25.50;94.50;;;;;;5035427;28;20177;-56
2023/06/26 07:37:09;;;;;;;11.93;9.25;;;25.60;94.60;;;;;;5034389;28;20034;-57
2023/06/26 07:39:55;;;;;;;13.05;9.27;;;25.50;94.20;;;;;;5037536;28;20034;-58
2023/06/26 07:42:41;;;;;;;11.93;9.73;;;25.60;94.00;;;;;;5035012;28;20041;-58
2023/06/26 07:45:26;;;;;;;13.55;9.60;;;25.70;94.40;;;;;;5035024;28;20506;-58
2023/06/26 07:48:12;;;;;;;11.82;9.45;;;25.70;94.00;;;;;;5034524;28;20410;-59
2023/06/26 07:50:58;;;;;;;13.35;8.52;;;25.80;94.10;;;;;;5034231;28;20042;-59
2023/06/26 07:53:44;;;;;;;10.70;8.95;;;25.90;94.10;;;;;;5033916;28;20080;-58
2023/06/26 07:56:30;;;;;;;10.38;9.23;;;26.00;93.50;;;;;;5035643;28;20555;-57
2023/06/26 07:59:16;;;;;;;10.02;8.82;;;26.10;93.30;;;;;;5035991;28;20085;-57
2023/06/26 08:02:03;;;;;;;9.40;8.48;;;26.30;92.90;;;;;;5034744;28;20029;-55
2023/06/26 08:04:49;;;;;;;9.88;8.45;;;26.40;92.30;;;;;;5033021;28;20041;-58
2023/06/26 08:07:35;;;;;;;10.27;8.60;;;26.50;92.30;;;;;;5037099;28;20112;-58
2023/06/26 08:10:21;;;;;;;9.45;8.48;;;26.50;92.30;;;;;;5040693;28;20072;-57
2023/06/26 08:13:06;;;;;;;10.00;9.00;;;26.50;92.30;;;;;;5036164;28;20536;-57
2023/06/26 08:15:52;;;;;;;11.27;9.10;;;26.70;91.90;;;;;;5034556;28;20029;-58
2023/06/26 08:18:38;;;;;;;10.35;9.25;;;26.70;91.70;;;;;;5034644;28;20053;-60
2023/06/26 08:21:24;;;;;;;10.00;8.38;;;26.70;91.90;;;;;;5033647;28;20120;-60
2023/06/26 08:24:10;;;;;;;10.77;9.43;;;26.80;91.70;;;;;;5035542;28;20112;-58
2023/06/26 08:26:56;;;;;;;10.48;8.40;;;26.90;91.90;;;;;;5032800;28;20104;-59
2023/06/26 08:29:42;;;;;;;9.43;8.52;;;27.10;91.60;;;;;;5034679;28;20390;-59
2023/06/26 08:32:28;;;;;;;9.75;8.20;;;27.20;91.00;;;;;;5033562;28;20057;-60
2023/06/26 08:35:15;;;;;;;9.70;8.70;;;27.30;90.80;;;;;;5032613;28;20532;-57
2023/06/26 08:38:01;;;;;;;11.60;9.10;;;27.40;90.60;;;;;;5060548;28;20087;-58
2023/06/26 08:40:48;;;;;;;11.40;8.82;;;27.40;90.40;;;;;;5035716;28;20112;-58
2023/06/26 08:43:35;;;;;;;9.80;8.32;;;27.60;90.80;;;;;;5034797;28;20017;-59
2023/06/26 08:46:21;;;;;;;9.27;8.38;;;27.70;90.00;;;;;;5043945;28;20052;-59
2023/06/26 08:49:35;;;;;;;10.25;8.90;;;27.70;89.00;;;;;;5042656;28;20116;-60
2023/06/26 08:52:28;;;;;;;12.98;8.70;;;27.80;89.50;;;;;;5035143;28;20025;-58
2023/06/26 08:55:16;;;;;;;9.38;8.38;;;27.80;88.00;;;;;;5033601;28;20036;-57
2023/06/26 08:58:02;;;;;;;10.45;8.40;;;27.90;88.50;;;;;;5036319;28;20037;-59
2023/06/26 09:00:49;;;;;;;9.02;8.13;;;28.00;87.60;;;;;;5037276;28;20525;-59
2023/06/26 09:03:35;;;;;;;9.38;8.48;;;28.10;86.40;;;;;;5034076;28;20034;-60
2023/06/26 09:06:21;;;;;;;9.10;8.10;;;28.20;85.90;;;;;;5034918;28;20029;-58
2023/06/26 09:09:07;;;;;;;9.38;8.40;;;28.40;84.80;;;;;;5031952;28;20053;-59
2023/06/26 09:11:55;;;;;;;12.35;8.23;;;28.40;84.90;;;;;;5032567;28;20025;-59
2023/06/26 09:14:41;;;;;;;9.15;8.07;;;28.50;84.10;;;;;;5031989;28;20060;-60
2023/06/26 09:17:33;;;;;;;9.68;8.68;;;28.50;84.50;;;;;;5034613;28;20478;-60
2023/06/26 09:20:19;;;;;;;10.30;8.00;;;28.60;83.90;;;;;;5035270;28;20075;-59
2023/06/26 09:23:05;;;;;;;8.82;8.02;;;28.60;82.80;;;;;;5035270;28;20044;-60
2023/06/26 09:25:52;;;;;;;9.38;8.05;;;28.90;81.80;;;;;;5035440;28;20034;-60
2023/06/26 09:28:38;;;;;;;10.10;7.80;;;28.90;80.60;;;;;;5033386;28;20069;-60
2023/06/26 09:31:25;;;;;;;11.50;8.07;;;28.90;80.40;;;;;;5034895;28;20069;-59
2023/06/26 09:34:12;;;;;;;9.93;8.02;;;29.00;80.00;;;;;;5034540;28;20033;-59
2023/06/26 09:36:59;;;;;;;7.90;7.15;;;29.00;79.90;;;;;;5033850;28;20120;-55
2023/06/26 09:39:45;;;;;;;10.43;8.30;;;29.10;80.00;;;;;;5033950;28;20026;-59
2023/06/26 09:42:31;;;;;;;10.85;7.85;;;29.20;80.00;;;;;;5034569;28;20056;-61
2023/06/26 09:45:20;;;;;;;11.20;8.80;;;29.30;80.20;;;;;;5034141;28;20543;-59
2023/06/26 09:48:11;;;;;;;11.00;8.10;;;29.30;79.50;;;;;;5035733;28;20033;-58
2023/06/26 09:51:00;;;;;;;11.20;7.40;;;29.30;79.80;;;;;;5037116;28;20021;-58
2023/06/26 09:53:48;;;;;;;8.85;7.82;;;29.60;78.90;;;;;;5032937;28;20112;-59
2023/06/26 09:56:34;;;;;;;8.02;7.25;;;29.60;77.20;;;;;;5034163;28;20486;-59
2023/06/26 09:59:21;;;;;;;10.13;7.82;;;29.50;77.50;;;;;;5034085;28;20095;-60
2023/06/26 10:02:07;;;;;;;8.20;7.43;;;29.50;76.50;;;;;;5034318;28;20037;-59
2023/06/26 10:04:53;;;;;;;8.68;7.78;;;29.50;75.60;;;;;;5031793;28;20021;-59
2023/06/26 10:07:40;;;;;;;9.20;8.32;;;29.70;75.80;;;;;;5030418;28;20037;-59
2023/06/26 10:10:27;;;;;;;10.10;7.60;;;29.80;75.40;;;;;;5034211;28;20172;-59
2023/06/26 10:13:25;;;;;;;8.40;7.15;;;29.70;75.20;;;;;;5034292;28;20490;-58
2023/06/26 10:16:11;;;;;;;8.52;7.65;;;29.80;74.70;;;;;;5033755;28;20037;-58
2023/06/26 10:19:03;;;;;;;8.65;7.75;;;30.00;74.00;;;;;;5034968;28;20038;-59
2023/06/26 10:21:50;;;;;;;8.63;7.70;;;29.90;74.70;;;;;;5036329;28;20082;-59
2023/06/26 10:24:39;;;;;;;9.38;7.38;;;30.00;72.80;;;;;;5037746;28;20029;-59
2023/06/26 10:27:29;;;;;;;8.73;7.88;;;30.00;73.10;;;;;;5034844;28;20117;-58
2023/06/26 10:30:20;;;;;;;8.32;7.53;;;30.00;74.10;;;;;;5033573;28;20029;-58
2023/06/26 10:33:07;;;;;;;9.90;7.80;;;30.00;74.50;;;;;;5032150;28;20017;-60
2023/06/26 10:35:53;;;;;;;9.20;7.68;;;30.00;73.40;;;;;;5033932;28;20041;-60
2023/06/26 10:38:50;;;;;;;8.77;7.45;;;30.10;71.90;;;;;;5030616;28;20496;-60
2023/06/26 10:41:42;;;;;;;8.43;7.10;;;30.00;71.50;;;;;;5031336;28;20033;-60
2023/06/26 10:44:43;;;;;;;9.48;7.57;;;30.10;71.10;;;;;;5033429;28;20101;-60
2023/06/26 10:47:36;;;;;;;8.63;7.82;;;30.20;71.50;;;;;;5032923;28;20083;-60
2023/06/26 10:50:30;;;;;;;9.20;8.30;;;30.20;70.70;;;;;;5030662;28;20363;-59
2023/06/26 10:53:21;;;;;;;;;;;30.30;70.10;;;;;;5033840;28;20026;-59
2023/06/26 10:56:07;;;;;;;10.63;8.05;;;30.50;70.70;;;;;;5032284;28;19911;-59
2023/06/26 10:59:17;;;;;;;9.13;8.23;;;30.30;70.70;;;;;;5031470;28;20030;-59
2023/06/26 11:02:06;;;;;;;10.23;8.25;;;30.20;70.60;;;;;;5040478;28;20171;-59
2023/06/26 11:04:53;;;;;;;9.27;8.38;;;30.00;69.80;;;;;;5042263;28;20025;-58
2023/06/26 11:08:03;;;;;;;9.68;8.68;;;30.20;70.60;;;;;;5031372;28;20037;-58
2023/06/26 11:10:55;;;;;;;9.57;7.85;;;30.50;70.10;;;;;;5033839;28;20018;-59
2023/06/26 11:13:42;;;;;;;9.20;8.27;;;30.60;70.40;;;;;;5033781;28;20030;-58
2023/06/26 11:16:29;;;;;;;11.18;8.98;;;30.60;68.70;;;;;;5030637;28;20030;-59
2023/06/26 11:19:18;;;;;;;9.30;8.50;;;30.60;70.10;;;;;;5033126;28;20502;-58
2023/06/26 11:22:05;;;;;;;11.63;8.30;;;30.80;69.00;;;;;;5032985;28;20037;-59
2023/06/26 11:24:54;;;;;;;9.65;8.75;;;30.80;68.40;;;;;;5031074;28;20037;-59
2023/06/26 11:27:43;;;;;;;8.80;8.00;;;30.70;69.80;;;;;;5031087;28;20108;-57
2023/06/26 11:30:29;;;;;;;10.10;9.10;;;30.80;68.80;;;;;;5033189;28;20113;-58
2023/06/26 11:33:15;;;;;;;12.15;8.70;;;30.90;67.10;;;;;;5033669;28;20045;-58
2023/06/26 11:36:11;;;;;;;9.63;8.73;;;30.90;67.10;;;;;;5030547;28;20022;-58
2023/06/26 11:39:02;;;;;;;9.38;8.48;;;30.70;67.50;;;;;;5030701;28;20029;-58
2023/06/26 11:41:49;;;;;;;9.63;8.68;;;30.80;67.50;;;;;;5032883;28;20036;-58
2023/06/26 11:44:42;;;;;;;8.82;8.02;;;30.80;67.20;;;;;;5033008;28;20112;-58
2023/06/26 11:47:28;;;;;;;10.00;8.48;;;30.70;67.10;;;;;;5032511;28;20030;-56
2023/06/26 11:50:19;;;;;;;9.98;8.60;;;30.60;67.60;;;;;;5032978;28;20032;-58
2023/06/26 11:53:07;;;;;;;8.98;8.18;;;30.80;67.50;;;;;;5036806;28;20025;-59
2023/06/26 11:55:53;;;;;;;8.68;7.80;;;31.00;67.70;;;;;;5035190;28;20022;-60
2023/06/26 11:59:03;;;;;;;10.13;8.43;;;31.10;67.10;;;;;;5041173;28;20478;-60
2023/06/26 12:01:51;;;;;;;10.82;8.50;;;31.20;66.60;;;;;;5035496;28;20033;-60
2023/06/26 12:04:39;;;;;;;13.98;8.15;;;31.20;66.80;;;;;;5036365;28;20034;-60
2023/06/26 12:07:25;;;;;;;8.80;8.00;;;31.40;67.40;;;;;;5036264;28;20084;-59
2023/06/26 12:10:13;;;;;;;9.25;8.25;;;31.50;66.80;;;;;;5036537;28;20026;-60
2023/06/26 12:13:01;;;;;;;9.07;8.20;;;31.50;67.20;;;;;;5035919;28;20109;-59
2023/06/26 12:15:47;;;;;;;9.55;8.32;;;31.50;66.00;;;;;;5033599;28;20438;-59
2023/06/26 12:18:36;;;;;;;10.00;8.25;;;31.60;66.10;;;;;;5034641;28;20029;-58
2023/06/26 12:21:52;;;;;;;9.63;8.63;;;31.70;64.90;;;;;;5035709;28;20030;-60
2023/06/26 12:24:39;;;;;;;9.13;7.95;;;31.60;63.90;;;;;;5035442;28;20030;-59
2023/06/26 12:27:25;;;;;;;12.43;8.38;;;31.50;65.20;;;;;;5033418;28;20148;-60
2023/06/26 12:30:12;;;;;;;13.13;7.95;;;31.80;65.40;;;;;;5035343;28;20032;-60
2023/06/26 12:32:58;;;;;;;8.98;7.82;;;32.00;66.10;;;;;;5034159;28;20025;-59
2023/06/26 12:35:45;;;;;;;10.68;7.82;;;31.90;64.70;;;;;;5035729;28;20029;-60
2023/06/26 12:38:35;;;;;;;10.68;8.07;;;31.90;64.10;;;;;;5035071;28;20053;-60
2023/06/26 12:41:24;;;;;;;8.43;7.63;;;31.90;65.80;;;;;;5022101;28;20029;-59
2023/06/26 12:44:30;;;;;;;9.88;8.63;;;31.80;65.70;;;;;;5037797;28;20025;-59
2023/06/26 12:47:17;;;;;;;9.13;8.07;;;31.80;64.70;;;;;;5041578;28;20123;-60
2023/06/26 12:50:05;;;;;;;9.48;7.85;;;31.80;64.90;;;;;;5033222;28;20021;-60
2023/06/26 12:52:51;;;;;;;8.73;7.80;;;31.80;65.60;;;;;;5033632;28;20034;-60
2023/06/26 12:55:37;;;;;;;8.77;7.88;;;31.60;65.80;;;;;;5033426;28;20021;-59
2023/06/26 12:58:23;;;;;;;9.73;7.88;;;31.70;65.00;;;;;;5032736;28;20112;-59
2023/06/26 13:01:14;;;;;;;8.75;7.95;;;31.60;65.00;;;;;;5032722;28;20044;-58
2023/06/26 13:04:00;;;;;;;9.57;8.57;;;31.40;66.20;;;;;;5034232;28;20030;-59
2023/06/26 13:06:46;;;;;;;9.38;7.80;;;31.40;65.90;;;;;;5031748;28;20033;-60
2023/06/26 13:09:34;;;;;;;9.35;8.32;;;31.30;66.70;;;;;;5032542;28;20057;-57
2023/06/26 13:12:20;;;;;;;9.02;7.70;;;31.30;67.90;;;;;;5033123;28;20105;-59
2023/06/26 13:15:07;;;;;;;9.63;8.15;;;31.40;66.00;;;;;;5034210;28;20037;-60
2023/06/26 13:17:53;;;;;;;10.13;8.50;;;31.50;65.80;;;;;;5043633;28;20037;-59
2023/06/26 13:20:39;;;;;;;8.75;7.72;;;31.50;65.10;;;;;;5046421;28;20048;-60
2023/06/26 13:23:24;;;;;;;10.35;8.23;;;31.80;65.00;;;;;;5033264;28;20041;-57
2023/06/26 13:26:11;;;;;;;9.77;8.25;;;31.70;64.20;;;;;;5032623;28;20061;-58
2023/06/26 13:28:57;;;;;;;10.32;8.00;;;31.30;64.80;;;;;;5033666;28;20021;-60
2023/06/26 13:31:43;;;;;;;10.10;7.82;;;31.10;64.70;;;;;;5033999;28;20075;-58
2023/06/26 13:34:29;;;;;;;17.67;9.93;;;30.70;65.80;;;;;;5014811;28;20034;-58
2023/06/26 13:37:15;;;;;;;20.73;10.07;;;29.80;77.20;;;;;;5013916;28;20457;-58
2023/06/26 13:40:02;;;;;;;24.13;11.32;;;28.90;81.70;;;;;;5028670;28;20068;-59
2023/06/26 13:42:48;;;;;;;28.77;14.25;;;28.20;88.80;;;;;;5033551;28;20382;-61
2023/06/26 13:45:34;;;;;;;18.08;13.85;;;27.00;93.70;;;;;;5033378;28;20029;-62
2023/06/26 13:48:20;;;;;;;20.40;14.50;;;26.00;96.60;;;;;;5030298;28;20451;-62
2023/06/26 13:51:06;;;;;;;21.25;14.80;;;25.20;99.60;;;;;;5032236;28;20030;-61
2023/06/26 13:53:51;;;;;;;20.95;13.63;;;24.80;99.90;;;;;;5021639;28;20398;-62
2023/06/26 13:56:37;;;;;;;15.57;12.00;;;25.20;99.90;;;;;;5016397;28;20082;-63
2023/06/26 13:59:27;;;;;;;13.70;11.80;;;25.60;99.90;;;;;;5017144;28;20029;-62
2023/06/26 14:02:13;;;;;;;15.00;12.15;;;25.60;97.30;;;;;;5031543;28;20036;-61
2023/06/26 14:04:59;;;;;;;14.05;11.77;;;25.50;97.60;;;;;;5032713;28;20025;-61
2023/06/26 14:07:46;;;;;;;13.55;11.75;;;25.70;98.40;;;;;;5059030;28;20517;-61
2023/06/26 14:10:33;;;;;;;16.58;11.20;;;25.60;97.60;;;;;;5032825;28;20034;-60
2023/06/26 14:13:19;;;;;;;14.00;11.88;;;25.50;98.60;;;;;;5033093;28;20445;-61
2023/06/26 14:16:05;;;;;;;16.70;12.02;;;25.40;97.70;;;;;;5032370;28;20053;-56
2023/06/26 14:18:51;;;;;;;13.45;11.43;;;25.20;97.70;;;;;;5027285;28;20033;-56
2023/06/26 14:21:37;;;;;;;13.80;11.30;;;24.90;98.30;;;;;;5031626;28;20040;-54
2023/06/26 14:24:23;;;;;;;12.65;11.35;;;25.00;98.30;;;;;;5032396;28;20167;-55